createdAt,value
2023-01-22T00:00:12.486Z,26.7
2023-01-22T00:03:53.451Z,17
2023-01-22T00:06:41.217Z,31.9
2023-01-22T00:09:28.745Z,29.7
2023-01-22T00:12:16.495Z,21.7
2023-01-22T00:15:03.726Z,29.5
2023-01-22T00:17:52.516Z,29.4
2023-01-22T00:20:41.611Z,15.6
2023-01-22T00:23:32.148Z,10.9
2023-01-22T00:26:20.051Z,8.8
2023-01-22T00:29:07.867Z,7.3
2023-01-22T00:31:55.603Z,6.4
2023-01-22T00:34:43.061Z,5.7
2023-01-22T00:37:36.720Z,4.7
2023-01-22T00:40:24.184Z,5.2
2023-01-22T00:43:11.728Z,4.7
2023-01-22T00:45:59.197Z,4.6
2023-01-22T00:48:46.528Z,4.2
2023-01-22T00:51:34.758Z,4.4
2023-01-22T00:54:23.905Z,4.6
2023-01-22T00:57:11.534Z,5.2
2023-01-22T00:59:58.981Z,4
2023-01-22T01:02:46.366Z,5
2023-01-22T01:06:05.769Z,4.6
2023-01-22T01:08:58.070Z,4.7
2023-01-22T01:11:46.345Z,4
2023-01-22T01:14:33.785Z,5.3
2023-01-22T01:17:21.075Z,4.9
2023-01-22T01:20:08.350Z,5.3
2023-01-22T01:22:57.125Z,4.2
2023-01-22T01:25:44.417Z,5
2023-01-22T01:28:32.243Z,4.5
2023-01-22T01:31:21.320Z,5.3
2023-01-22T01:34:10.559Z,6.1
2023-01-22T01:36:58.397Z,5.1
2023-01-22T01:39:45.831Z,5.7
2023-01-22T01:42:37.022Z,5.5
2023-01-22T01:45:27.113Z,6.9
2023-01-22T01:48:16.721Z,5.5
2023-01-22T01:51:11.792Z,5.5
2023-01-22T01:54:03.563Z,5.5
2023-01-22T01:56:51.820Z,6.2
2023-01-22T01:59:43.165Z,5.5
2023-01-22T02:02:33.895Z,5.3
2023-01-22T02:05:21.561Z,5.8
2023-01-22T02:08:10.370Z,5.6
2023-01-22T02:10:59.162Z,5.5
2023-01-22T02:13:46.468Z,5.9
2023-01-22T02:16:39.098Z,6.2
2023-01-22T02:19:26.538Z,6.8
2023-01-22T02:22:13.788Z,6.9
2023-01-22T02:25:05.945Z,5.8
2023-01-22T02:27:55.083Z,6
2023-01-22T02:30:42.899Z,6.5
2023-01-22T02:33:30.910Z,5.5
2023-01-22T02:36:18.401Z,5.6
2023-01-22T02:39:06.948Z,5.9
2023-01-22T02:41:54.326Z,5.6
2023-01-22T02:44:41.793Z,6
2023-01-22T02:47:29.195Z,6.7
2023-01-22T02:50:16.688Z,7.2
2023-01-22T02:53:04.620Z,6.2
2023-01-22T02:55:52.116Z,6.3
2023-01-22T02:58:39.517Z,5.9
2023-01-22T03:01:26.767Z,5.4
2023-01-22T03:04:14.112Z,5.6
2023-01-22T03:07:01.465Z,5.4
2023-01-22T03:09:49.090Z,6.4
2023-01-22T03:12:36.477Z,6.2
2023-01-22T03:15:55.819Z,5.9
2023-01-22T03:19:15.602Z,5.8
2023-01-22T03:22:35.209Z,6.6
2023-01-22T03:25:22.649Z,6.4
2023-01-22T03:28:09.985Z,6.8
2023-01-22T03:31:03.994Z,5.4
2023-01-22T03:33:52.223Z,6.9
2023-01-22T03:36:39.670Z,6.8
2023-01-22T03:39:27.542Z,6.6
2023-01-22T03:42:16.732Z,6
2023-01-22T03:45:04.231Z,7.2
2023-01-22T03:47:54.579Z,6.9
2023-01-22T03:50:41.849Z,6.3
2023-01-22T03:53:29.147Z,6.8
2023-01-22T03:56:16.550Z,6.7
2023-01-22T03:59:07.009Z,6.7
2023-01-22T04:01:55.619Z,7.1
2023-01-22T04:04:42.949Z,7.3
2023-01-22T04:07:32.269Z,7
2023-01-22T04:10:20.382Z,6.9
2023-01-22T04:13:07.793Z,6.7
2023-01-22T04:15:55.288Z,6.9
2023-01-22T04:18:43.020Z,6.8
2023-01-22T04:21:30.363Z,6.8
2023-01-22T04:24:17.629Z,7.1
2023-01-22T04:27:05.902Z,7.9
2023-01-22T04:29:53.201Z,7.2
2023-01-22T04:32:41.188Z,7.7
2023-01-22T04:35:28.755Z,7.1
2023-01-22T04:38:16.840Z,7.2
2023-01-22T04:41:04.642Z,7.9
2023-01-22T04:43:51.986Z,7.7
2023-01-22T04:46:39.204Z,7.4
2023-01-22T04:49:26.489Z,6.4
2023-01-22T04:52:13.813Z,7.5
2023-01-22T04:55:01.271Z,7.3
2023-01-22T04:57:49.255Z,8.3
2023-01-22T05:00:39.939Z,6.9
2023-01-22T05:03:27.279Z,8
2023-01-22T05:06:14.767Z,8
2023-01-22T05:09:02.109Z,7.6
2023-01-22T05:11:49.543Z,8.2
2023-01-22T05:14:37.267Z,8.1
2023-01-22T05:17:24.637Z,7.3
2023-01-22T05:20:11.982Z,8.4
2023-01-22T05:22:59.514Z,8.7
2023-01-22T05:25:46.858Z,8.5
2023-01-22T05:28:34.820Z,7.4
2023-01-22T05:31:22.234Z,8
2023-01-22T05:34:10.042Z,7.7
2023-01-22T05:36:57.394Z,7.3
2023-01-22T05:39:45.169Z,8.3
2023-01-22T05:42:32.836Z,7.7
2023-01-22T05:45:20.539Z,7.9
2023-01-22T05:48:07.902Z,6.6
2023-01-22T05:50:55.351Z,7.6
2023-01-22T05:53:42.732Z,8.4
2023-01-22T05:56:31.036Z,7.3
2023-01-22T05:59:18.609Z,7.2
2023-01-22T06:02:07.183Z,7.2
2023-01-22T06:04:54.639Z,7
2023-01-22T06:07:42.024Z,8.1
2023-01-22T06:10:29.342Z,8.4
2023-01-22T06:13:16.723Z,7.5
2023-01-22T06:16:04.514Z,8.4
2023-01-22T06:18:52.936Z,8.6
2023-01-22T06:21:40.349Z,8.4
2023-01-22T06:24:28.389Z,8.7
2023-01-22T06:27:15.715Z,7.8
2023-01-22T06:30:03.812Z,8.6
2023-01-22T06:32:53.022Z,7.6
2023-01-22T06:35:40.962Z,8.1
2023-01-22T06:38:28.470Z,9.7
2023-01-22T06:41:16.224Z,8.3
2023-01-22T06:44:03.540Z,7.8
2023-01-22T06:46:51.155Z,8
2023-01-22T06:49:38.490Z,8
2023-01-22T06:52:25.840Z,8.9
2023-01-22T06:55:13.224Z,8.3
2023-01-22T06:58:00.955Z,8.1
2023-01-22T07:00:48.729Z,8.8
2023-01-22T07:03:36.103Z,8.7
2023-01-22T07:06:23.583Z,8.9
2023-01-22T07:09:10.969Z,8.5
2023-01-22T07:11:58.277Z,7.7
2023-01-22T07:14:46.379Z,9.9
2023-01-22T07:17:33.706Z,9.9
2023-01-22T07:20:22.180Z,9.5
2023-01-22T07:23:09.788Z,8.7
2023-01-22T07:25:57.122Z,9.2
2023-01-22T07:28:44.996Z,9.1
2023-01-22T07:31:32.331Z,9.1
2023-01-22T07:34:19.998Z,11
2023-01-22T07:37:08.010Z,9.6
2023-01-22T07:39:55.390Z,9.8
2023-01-22T07:42:42.778Z,9.7
2023-01-22T07:45:30.116Z,11
2023-01-22T07:48:18.021Z,9.9
2023-01-22T07:51:06.338Z,10.7
2023-01-22T07:53:53.783Z,10.4
2023-01-22T07:56:41.046Z,11.1
2023-01-22T07:59:28.454Z,10
2023-01-22T08:02:16.143Z,10.1
2023-01-22T08:05:03.624Z,9.1
2023-01-22T08:07:52.384Z,9.8
2023-01-22T08:10:39.877Z,10.6
2023-01-22T08:13:27.486Z,10.9
2023-01-22T08:16:15.207Z,11.1
2023-01-22T08:19:02.526Z,11.4
2023-01-22T08:21:49.897Z,11.9
2023-01-22T08:24:37.198Z,11.3
2023-01-22T08:27:24.711Z,11.4
2023-01-22T08:30:12.560Z,12.1
2023-01-22T08:33:00.493Z,12.9
2023-01-22T08:35:47.980Z,12
2023-01-22T08:38:36.209Z,11.7
2023-01-22T08:41:23.520Z,11.7
2023-01-22T08:44:10.968Z,12.6
2023-01-22T08:46:58.486Z,13.8
2023-01-22T08:49:45.819Z,12.9
2023-01-22T08:52:33.091Z,11.7
2023-01-22T08:55:20.606Z,11.3
2023-01-22T08:58:07.885Z,12.1
2023-01-22T09:00:55.311Z,14
2023-01-22T09:03:42.957Z,12.9
2023-01-22T09:06:30.783Z,14.1
2023-01-22T09:09:18.930Z,11.4
2023-01-22T09:12:07.360Z,13
2023-01-22T09:14:54.686Z,15.5
2023-01-22T09:17:42.066Z,14.9
2023-01-22T09:20:29.377Z,14.2
2023-01-22T09:23:21.731Z,12.7
2023-01-22T09:26:09.982Z,11.7
2023-01-22T09:28:57.393Z,12.3
2023-01-22T09:31:45.681Z,10.9
2023-01-22T09:34:33.030Z,12
2023-01-22T09:37:20.659Z,12.3
2023-01-22T09:40:08.270Z,12.8
2023-01-22T09:43:06.367Z,12.5
2023-01-22T09:46:12.317Z,11.8
2023-01-22T09:49:05.892Z,14
2023-01-22T09:51:59.529Z,10.6
2023-01-22T09:54:49.608Z,11.7
2023-01-22T09:57:36.979Z,11
2023-01-22T10:00:29.928Z,12.5
2023-01-22T10:03:24.648Z,12.8
2023-01-22T10:06:16.450Z,12.5
2023-01-22T10:09:07.519Z,13.2
2023-01-22T10:12:00.697Z,14.2
2023-01-22T10:14:57.502Z,13.5
2023-01-22T10:17:44.911Z,15
2023-01-22T10:20:33.199Z,27.4
2023-01-22T10:23:20.846Z,23.1
2023-01-22T10:26:10.319Z,16.8
2023-01-22T10:29:01.792Z,23.1
2023-01-22T10:31:52.253Z,19.1
2023-01-22T10:34:41.740Z,17.4
2023-01-22T10:37:29.144Z,18
2023-01-22T10:40:28.695Z,25.6
2023-01-22T10:43:22.807Z,18.1
2023-01-22T10:46:18.010Z,14.5
2023-01-22T10:49:10.735Z,14.9
2023-01-22T10:52:01.906Z,18
2023-01-22T10:55:02.737Z,20.3
2023-01-22T10:57:51.973Z,17.7
2023-01-22T11:00:51.961Z,16.2
2023-01-22T11:03:44.955Z,15.6
2023-01-22T11:06:32.382Z,15
2023-01-22T11:09:26.072Z,14.7
2023-01-22T11:12:20.369Z,15.4
2023-01-22T11:15:14.370Z,13.6
2023-01-22T11:18:07.884Z,18.2
2023-01-22T11:21:01.886Z,24.3
2023-01-22T11:23:57.980Z,19.3
2023-01-22T11:26:49.919Z,18.9
2023-01-22T11:29:50.749Z,18.7
2023-01-22T11:32:55.575Z,14.2
2023-01-22T11:35:51.799Z,13.7
2023-01-22T11:38:46.015Z,13.1
2023-01-22T11:41:38.337Z,12.1
2023-01-22T11:44:40.440Z,11.5
2023-01-22T11:47:44.040Z,12.7
2023-01-22T11:50:52.032Z,10.8
2023-01-22T11:53:51.519Z,11.6
2023-01-22T11:56:55.366Z,10.7
2023-01-22T11:59:54.060Z,11.1
2023-01-22T12:03:07.415Z,14.2
2023-01-22T12:06:36.778Z,13.6
2023-01-22T12:09:43.391Z,13.1
2023-01-22T12:12:38.718Z,17.6
2023-01-22T12:15:35.717Z,15
2023-01-22T12:18:30.368Z,15.3
2023-01-22T12:21:40.719Z,13.9
2023-01-22T12:24:40.932Z,18.4
2023-01-22T12:27:33.775Z,15.8
2023-01-22T12:30:25.814Z,13.6
2023-01-22T12:33:22.891Z,15
2023-01-22T12:36:14.072Z,16.6
2023-01-22T12:39:06.080Z,19.6
2023-01-22T12:42:05.874Z,24.3
2023-01-22T12:45:06.163Z,22.6
2023-01-22T12:48:08.102Z,27.7
2023-01-22T12:51:05.326Z,23.1
2023-01-22T12:54:10.899Z,19.7
2023-01-22T12:57:06.641Z,22.5
2023-01-22T13:00:07.511Z,16.2
2023-01-22T13:03:07.449Z,16.3
2023-01-22T13:06:09.743Z,18
2023-01-22T13:09:05.236Z,14.8
2023-01-22T13:12:09.789Z,16.5
2023-01-22T13:15:11.407Z,16.2
2023-01-22T13:18:07.482Z,15.7
2023-01-22T13:21:05.239Z,16.4
2023-01-22T13:23:55.475Z,15.4
2023-01-22T13:26:45.815Z,14.6
2023-01-22T13:29:39.384Z,14.3
2023-01-22T13:32:27.211Z,14.3
2023-01-22T13:35:15.257Z,16.7
2023-01-22T13:38:02.948Z,16.4
2023-01-22T13:40:51.611Z,15.4
2023-01-22T13:43:42.757Z,16.3
2023-01-22T13:46:30.277Z,14.8
2023-01-22T13:49:22.061Z,14.5
2023-01-22T13:52:12.006Z,14.4
2023-01-22T13:55:03.695Z,15.3
2023-01-22T13:58:01.100Z,18.6
2023-01-22T14:00:49.951Z,19.4
2023-01-22T14:03:37.873Z,18
2023-01-22T14:06:27.150Z,15.7
2023-01-22T14:09:15.284Z,15
2023-01-22T14:12:11.226Z,14.7
2023-01-22T14:15:01.449Z,14.3
2023-01-22T14:17:59.338Z,14.1
2023-01-22T14:20:56.114Z,16.2
2023-01-22T14:23:43.470Z,16.2
2023-01-22T14:26:31.136Z,16.5
2023-01-22T14:29:18.615Z,15.9
2023-01-22T14:32:06.906Z,16.9
2023-01-22T14:34:54.266Z,15.5
2023-01-22T14:37:42.005Z,17.4
2023-01-22T14:40:29.699Z,16.2
2023-01-22T14:43:17.672Z,15.4
2023-01-22T14:46:06.561Z,18.3
2023-01-22T14:48:54.499Z,18.5
2023-01-22T14:51:42.227Z,15.7
2023-01-22T14:54:30.001Z,18.8
2023-01-22T14:57:17.462Z,15.8
2023-01-22T15:00:05.070Z,17.1
2023-01-22T15:02:54.383Z,19.6
2023-01-22T15:05:43.215Z,19.6
2023-01-22T15:08:30.712Z,15
2023-01-22T15:11:18.010Z,24.4
2023-01-22T15:14:06.912Z,19.8
2023-01-22T15:16:54.383Z,19.1
2023-01-22T15:19:42.016Z,18.6
2023-01-22T15:22:29.397Z,17.8
2023-01-22T15:25:16.804Z,19
2023-01-22T15:28:04.242Z,21.2
2023-01-22T15:30:51.830Z,18.3
2023-01-22T15:33:41.276Z,16.3
2023-01-22T15:36:28.658Z,16.4
2023-01-22T15:39:17.513Z,15.7
2023-01-22T15:42:04.981Z,14.9
2023-01-22T15:44:52.559Z,16.5
2023-01-22T15:47:40.805Z,15.2
2023-01-22T15:50:28.245Z,16.9
2023-01-22T15:53:15.665Z,17.6
2023-01-22T15:56:04.164Z,22.7
2023-01-22T15:58:52.233Z,24.8
2023-01-22T16:01:41.299Z,24.9
2023-01-22T16:04:28.609Z,23.6
2023-01-22T16:07:15.927Z,26.5
2023-01-22T16:10:03.656Z,25.9
2023-01-22T16:12:52.517Z,22.3
2023-01-22T16:15:39.847Z,23.2
2023-01-22T16:18:27.280Z,22.9
2023-01-22T16:21:17.325Z,25.2
2023-01-22T16:24:06.603Z,24
2023-01-22T16:26:54.862Z,22.8
2023-01-22T16:29:42.268Z,21.5
2023-01-22T16:32:29.475Z,27.4
2023-01-22T16:35:16.889Z,17.8
2023-01-22T16:38:04.618Z,19.3
2023-01-22T16:40:52.122Z,22.9
2023-01-22T16:43:39.631Z,25.5
2023-01-22T16:46:27.148Z,24.5
2023-01-22T16:49:16.576Z,17.8
2023-01-22T16:52:21.440Z,16.8
2023-01-22T16:55:09.632Z,19.1
2023-01-22T16:57:57.568Z,26.6
2023-01-22T17:00:45.439Z,20.7
2023-01-22T17:03:34.256Z,19.3
2023-01-22T17:06:21.465Z,17.4
2023-01-22T17:09:12.508Z,22.2
2023-01-22T17:12:04.136Z,18.7
2023-01-22T17:14:52.261Z,31.4
2023-01-22T17:17:39.578Z,24.2
2023-01-22T17:20:27.265Z,23.1
2023-01-22T17:23:14.668Z,29.2
2023-01-22T17:26:02.018Z,22.9
2023-01-22T17:28:51.684Z,22.2
2023-01-22T17:31:39.365Z,19.8
2023-01-22T17:34:27.227Z,26.7
2023-01-22T17:37:14.804Z,26.2
2023-01-22T17:40:02.608Z,28.5
2023-01-22T17:42:52.411Z,26
2023-01-22T17:45:39.886Z,25.3
2023-01-22T17:48:27.440Z,24.1
2023-01-22T17:51:17.468Z,27.5
2023-01-22T17:54:07.226Z,36.1
2023-01-22T17:56:54.690Z,23.4
2023-01-22T17:59:42.241Z,23.3
2023-01-22T18:02:30.136Z,22.2
2023-01-22T18:05:18.213Z,22.9
2023-01-22T18:08:07.508Z,19
2023-01-22T18:10:54.913Z,28.8
2023-01-22T18:13:42.777Z,25.6
2023-01-22T18:16:30.299Z,20.3
2023-01-22T18:19:21.176Z,15.8
2023-01-22T18:22:09.259Z,16.9
2023-01-22T18:24:56.601Z,20.8
2023-01-22T18:27:44.062Z,21.7
2023-01-22T18:30:31.537Z,18.4
2023-01-22T18:33:20.145Z,16.1
2023-01-22T18:36:08.192Z,14.9
2023-01-22T18:38:58.810Z,17
2023-01-22T18:41:48.500Z,17
2023-01-22T18:44:36.006Z,18.1
2023-01-22T18:47:24.207Z,18.4
2023-01-22T18:50:11.510Z,18.2
2023-01-22T18:53:01.311Z,17.8
2023-01-22T18:55:48.830Z,19.7
2023-01-22T18:58:36.207Z,18.1
2023-01-22T19:01:25.888Z,15.8
2023-01-22T19:04:15.197Z,16.8
2023-01-22T19:07:06.262Z,19.2
2023-01-22T19:09:53.691Z,17.5
2023-01-22T19:12:41.139Z,16.5
2023-01-22T19:15:29.292Z,15.8
2023-01-22T19:18:17.937Z,19.2
2023-01-22T19:21:05.939Z,17.3
2023-01-22T19:23:55.810Z,18.3
2023-01-22T19:26:46.428Z,17.7
2023-01-22T19:29:34.383Z,16.4
2023-01-22T19:32:21.982Z,15.8
2023-01-22T19:35:12.515Z,15.9
2023-01-22T19:37:59.901Z,17.3
2023-01-22T19:40:47.295Z,19.3
2023-01-22T19:43:34.641Z,17.2
2023-01-22T19:46:22.431Z,16.9
2023-01-22T19:49:11.021Z,17.1
2023-01-22T19:51:58.728Z,17.4
2023-01-22T19:54:46.464Z,16.3
2023-01-22T19:57:35.113Z,18.1
2023-01-22T20:00:22.872Z,15.1
2023-01-22T20:03:10.413Z,16.2
2023-01-22T20:05:58.136Z,16.2
2023-01-22T20:08:45.469Z,15.4
2023-01-22T20:11:32.787Z,16.7
2023-01-22T20:14:20.521Z,14.9
2023-01-22T20:17:10.656Z,15
2023-01-22T20:19:58.479Z,14.6
2023-01-22T20:22:45.815Z,16.4
2023-01-22T20:25:33.522Z,14.5
2023-01-22T20:28:23.552Z,14.8
2023-01-22T20:31:11.341Z,15.8
2023-01-22T20:34:01.933Z,14.8
2023-01-22T20:36:50.111Z,14.9
2023-01-22T20:39:37.509Z,15
2023-01-22T20:42:24.889Z,14.7
2023-01-22T20:45:12.938Z,15.9
2023-01-22T20:48:00.418Z,15.7
2023-01-22T20:50:48.304Z,16.1
2023-01-22T20:53:35.765Z,15.4
2023-01-22T20:56:23.739Z,15.3
2023-01-22T20:59:16.030Z,15.1
2023-01-22T21:02:03.968Z,16.2
2023-01-22T21:04:51.781Z,16.8
2023-01-22T21:07:40.924Z,18.3
2023-01-22T21:10:28.675Z,15.9
2023-01-22T21:13:16.006Z,17.2
2023-01-22T21:16:03.555Z,13
2023-01-22T21:18:54.467Z,15.3
2023-01-22T21:21:44.305Z,14.5
2023-01-22T21:24:32.227Z,14.1
2023-01-22T21:27:19.975Z,16.3
2023-01-22T21:30:07.965Z,14
2023-01-22T21:32:56.707Z,14.5
2023-01-22T21:35:44.043Z,15.1
2023-01-22T21:38:33.685Z,13.3
2023-01-22T21:41:21.561Z,13.8
2023-01-22T21:44:09.171Z,13.6
2023-01-22T21:47:29.631Z,14.3
2023-01-22T21:50:17.239Z,15.1
2023-01-22T21:53:05.165Z,13.1
2023-01-22T21:55:53.016Z,14.9
2023-01-22T21:58:40.898Z,14.9
2023-01-22T22:01:29.844Z,14.9
2023-01-22T22:04:17.219Z,14
2023-01-22T22:07:05.017Z,15.7
2023-01-22T22:09:52.510Z,15.7
2023-01-22T22:12:39.833Z,15.3
2023-01-22T22:15:27.671Z,15.2
2023-01-22T22:18:15.362Z,15.5
2023-01-22T22:21:02.674Z,16.2
2023-01-22T22:23:52.741Z,15.1
2023-01-22T22:26:42.232Z,16.1
2023-01-22T22:29:29.708Z,13.7
2023-01-22T22:32:16.984Z,15
2023-01-22T22:35:04.518Z,13.2
2023-01-22T22:37:52.480Z,14.2
2023-01-22T22:40:39.928Z,15.1
2023-01-22T22:43:27.298Z,13.2
2023-01-22T22:46:18.047Z,12.6
2023-01-22T22:49:09.700Z,13.4
2023-01-22T22:51:58.970Z,15.4
2023-01-22T22:54:46.234Z,15.1
2023-01-22T22:57:34.442Z,16.2
2023-01-22T23:00:22.077Z,14.2
2023-01-22T23:03:10.158Z,13.3
2023-01-22T23:05:57.473Z,12.8
2023-01-22T23:08:52.785Z,13.5
2023-01-22T23:11:42.087Z,13.7
2023-01-22T23:14:30.120Z,12.6
2023-01-22T23:17:17.416Z,13.5
2023-01-22T23:20:04.964Z,12.6
2023-01-22T23:22:53.482Z,14.7
2023-01-22T23:25:42.698Z,14
2023-01-22T23:28:30.039Z,13.3
2023-01-22T23:31:17.674Z,11.6
2023-01-22T23:34:05.002Z,13.4
2023-01-22T23:36:59.408Z,15
2023-01-22T23:39:46.761Z,13
2023-01-22T23:42:35.724Z,12.8
2023-01-22T23:45:23.063Z,12.2
2023-01-22T23:48:10.585Z,13.3
2023-01-22T23:50:57.932Z,14.7
2023-01-22T23:53:45.771Z,12.9
2023-01-22T23:56:36.242Z,13
2023-01-22T23:59:23.766Z,12.1
